首页
METAR-TAF:

METAR-TAF

机场 :

Rhinelander-Oneida County Airport

Rhinelander, 威斯康辛州, 美国

纬度: 45-37-54N, 经度: 089-28-56W, 海拔: 495米

当前天气观测

该预报发布于55分钟前的17:53 UTC
风速13节,风向西转西北,有时为25节阵风
温度 -7°C
湿度 67%
气压 1017 hPa
能見度: 14.5公里
阴天层高于2000英尺

METAR: KRHI 181753Z AUTO 29013G25KT 9SM OVC020 M07/M12 A3004 RMK AO2 SNE42 SLP200 P0000 60000 T10721122 11072 21083 51016

时间: 12:48 (18:48 UTC)

预报

该预报发布于1小时和12分钟前的17:36 UTC
预报有效从18日的 18点(UTC)到 19日的 18点(UTC)
风速11节,风向西转西北,有时为19节阵风
能見度: 8.0公里
多云层高于1500英尺
小阵雪
从 18日的 2000点(UTC)
风速11节,风向西转西北,有时为21节阵风
能見度: 10公里
阴天层高于1800英尺
从 18日的 2300点(UTC)
风速11节,风向西转西北,有时为21节阵风
能見度: 10公里
阴天层高于2400英尺
从 19日的 0200点(UTC)
风速8节,风向西转西北,有时为17节阵风
能見度: 10公里
多云层高于2500英尺
从 19日的 0500点(UTC)
风速6节,风向西转西北
能見度: 10公里
散云层高于3000英尺
从 19日的 0700点(UTC)
风速5节,风向西转西北
能見度: 10公里
少量云层高于3000英尺

TAF: KRHI 181736Z 1818/1918 29011G19KT 5SM -SHSN BKN015 FM182000 29011G21KT P6SM OVC018 FM182300 30011G21KT P6SM OVC024 FM190200 30008G17KT P6SM BKN025 FM190500 30006KT P6SM SCT030 FM190700 30005KT P6SM FEW030

超过4000个机场的气象观测和天气预报(METAR&TAF报告)。

可查询的气象台以黄色和红色小点在地图上表示。

将鼠标移到小点上方,可查看气象台名称。

然后点击查看天气观测和预报。

如需切换地图:点击带黑十字的绿色按钮放大地图;点击带横线的绿色按钮缩小地图;或者点击绿色箭头查看邻近地区的地图。


METAR-TAF: